createdAt,value
2022-12-20T00:00:33.560Z,79.30
2022-12-20T00:01:35.537Z,79.12
2022-12-20T00:02:37.440Z,79.66
2022-12-20T00:03:39.524Z,78.75
2022-12-20T00:04:41.340Z,79.69
2022-12-20T00:05:43.907Z,79.67
2022-12-20T00:06:45.758Z,79.20
2022-12-20T00:07:47.491Z,78.84
2022-12-20T00:08:53.690Z,79.11
2022-12-20T00:09:55.616Z,79.03
2022-12-20T00:10:59.970Z,78.91
2022-12-20T00:12:01.957Z,79.04
2022-12-20T00:13:03.791Z,79.49
2022-12-20T00:14:05.851Z,78.89
2022-12-20T00:15:07.735Z,79.37
2022-12-20T00:16:09.568Z,79.38
2022-12-20T00:17:11.297Z,79.37
2022-12-20T00:18:13.138Z,78.62
2022-12-20T00:19:16.181Z,78.75
2022-12-20T00:20:18.025Z,78.72
2022-12-20T00:21:20.394Z,78.75
2022-12-20T00:22:22.189Z,79.59
2022-12-20T00:23:24.059Z,78.79
2022-12-20T00:24:27.219Z,78.74
2022-12-20T00:25:29.039Z,78.93
2022-12-20T00:26:32.813Z,78.81
2022-12-20T00:27:34.537Z,78.78
2022-12-20T00:28:37.318Z,79.22
2022-12-20T00:29:39.161Z,78.73
2022-12-20T00:30:40.952Z,78.95
2022-12-20T00:31:42.802Z,78.92
2022-12-20T00:32:45.346Z,78.51
2022-12-20T00:33:48.710Z,78.50
2022-12-20T00:34:50.590Z,78.73
2022-12-20T00:35:52.691Z,79.08
2022-12-20T00:36:54.431Z,79.05
2022-12-20T00:37:56.177Z,79.44
2022-12-20T00:38:58.534Z,79.58
2022-12-20T00:40:00.533Z,78.92
2022-12-20T00:41:05.423Z,79.05
2022-12-20T00:42:07.340Z,79.51
2022-12-20T00:43:09.241Z,79.76
2022-12-20T00:44:11.287Z,79.07
2022-12-20T00:45:14.416Z,78.90
2022-12-20T00:46:17.174Z,78.97
2022-12-20T00:47:19.042Z,78.88
2022-12-20T00:48:21.100Z,79.07
2022-12-20T00:49:22.826Z,79.78
2022-12-20T00:50:24.837Z,79.09
2022-12-20T00:51:28.256Z,79.29
2022-12-20T00:52:30.051Z,79.58
2022-12-20T00:53:31.859Z,80.29
2022-12-20T00:54:33.889Z,80.09
2022-12-20T00:55:35.864Z,79.70
2022-12-20T00:56:37.630Z,79.99
2022-12-20T00:57:39.373Z,79.56
2022-12-20T00:58:42.082Z,79.66
2022-12-20T00:59:43.907Z,79.89
2022-12-20T01:00:49.171Z,79.58
2022-12-20T01:01:55.900Z,80.21
2022-12-20T01:02:58.016Z,79.34
2022-12-20T01:04:00.118Z,79.09
2022-12-20T01:05:01.909Z,79.24
2022-12-20T01:06:03.775Z,79.35
2022-12-20T01:07:05.601Z,79.12
2022-12-20T01:08:07.507Z,79.93
2022-12-20T01:09:10.350Z,79.38
2022-12-20T01:10:12.284Z,79.93
2022-12-20T01:11:17.950Z,79.72
2022-12-20T01:12:19.749Z,79.32
2022-12-20T01:13:22.259Z,79.62
2022-12-20T01:14:24.072Z,80.20
2022-12-20T01:15:25.889Z,79.96
2022-12-20T01:16:29.889Z,79.65
2022-12-20T01:17:31.775Z,80.24
2022-12-20T01:18:33.543Z,79.37
2022-12-20T01:19:35.373Z,79.37
2022-12-20T01:20:37.092Z,79.33
2022-12-20T01:21:44.921Z,79.50
2022-12-20T01:22:47.846Z,80.25
2022-12-20T01:23:50.101Z,79.56
2022-12-20T01:24:51.832Z,80.04
2022-12-20T01:25:53.598Z,80.24
2022-12-20T01:26:55.483Z,80.17
2022-12-20T01:27:57.204Z,79.80
2022-12-20T01:29:00.082Z,79.27
2022-12-20T01:30:01.926Z,79.83
2022-12-20T01:31:06.534Z,79.89
2022-12-20T01:32:09.337Z,80.37
2022-12-20T01:33:11.109Z,80.34
2022-12-20T01:34:12.999Z,80.93
2022-12-20T01:35:16.502Z,80.28
2022-12-20T01:36:22.624Z,80.56
2022-12-20T01:37:24.395Z,80.40
2022-12-20T01:38:26.650Z,80.40
2022-12-20T01:39:28.399Z,80.88
2022-12-20T01:40:30.296Z,80.54
2022-12-20T01:41:33.255Z,80.83
2022-12-20T01:42:35.135Z,80.54
2022-12-20T01:43:50.983Z,80.55
2022-12-20T01:44:56.898Z,80.47
2022-12-20T01:45:58.759Z,80.58
2022-12-20T01:47:00.642Z,80.46
2022-12-20T01:48:02.514Z,80.51
2022-12-20T01:49:07.375Z,80.65
2022-12-20T01:50:09.605Z,80.69
2022-12-20T01:51:11.804Z,80.49
2022-12-20T01:52:19.048Z,80.86
2022-12-20T01:53:23.658Z,80.28
2022-12-20T01:54:28.745Z,80.76
2022-12-20T01:55:30.650Z,80.18
2022-12-20T01:56:32.511Z,80.48
2022-12-20T01:58:00.907Z,79.84
2022-12-20T01:59:02.858Z,80.14
2022-12-20T02:00:05.463Z,80.02
2022-12-20T02:01:07.288Z,80.26
2022-12-20T02:02:11.598Z,79.76
2022-12-20T02:03:14.531Z,80.00
2022-12-20T02:04:17.280Z,81.07
2022-12-20T02:05:20.408Z,80.53
2022-12-20T02:06:24.493Z,80.10
2022-12-20T02:07:30.827Z,80.41
2022-12-20T02:08:32.677Z,80.48
2022-12-20T02:09:36.278Z,80.99
2022-12-20T02:10:53.239Z,80.32
2022-12-20T02:12:21.504Z,80.37
2022-12-20T02:13:38.170Z,80.09
2022-12-20T02:14:51.387Z,80.80
2022-12-20T02:15:58.004Z,80.34
2022-12-20T02:17:05.724Z,80.84
2022-12-20T02:18:10.687Z,81.10
2022-12-20T02:19:31.036Z,80.01
2022-12-20T02:20:38.860Z,80.32
2022-12-20T02:21:46.532Z,80.17
2022-12-20T02:22:51.814Z,80.86
2022-12-20T02:24:09.096Z,80.10
2022-12-20T02:25:29.693Z,80.54
2022-12-20T02:26:46.449Z,80.80
2022-12-20T02:28:03.743Z,80.71
2022-12-20T02:29:21.112Z,80.82
2022-12-20T02:30:25.478Z,81.01
2022-12-20T02:31:35.565Z,80.94
2022-12-20T02:32:53.170Z,80.47
2022-12-20T02:33:56.120Z,80.78
2022-12-20T02:34:57.935Z,81.04
2022-12-20T02:35:59.786Z,81.18
2022-12-20T02:37:01.611Z,81.10
2022-12-20T02:38:22.187Z,80.97
2022-12-20T02:39:26.251Z,80.91
2022-12-20T02:40:30.221Z,81.47
2022-12-20T02:41:44.444Z,81.00
2022-12-20T02:42:46.743Z,81.61
2022-12-20T02:44:08.565Z,81.50
2022-12-20T02:45:17.132Z,80.91
2022-12-20T02:46:20.301Z,81.09
2022-12-20T02:47:25.698Z,81.40
2022-12-20T02:48:29.309Z,81.52
2022-12-20T02:49:32.896Z,80.92
2022-12-20T02:50:40.358Z,81.43
2022-12-20T02:51:43.827Z,81.32
2022-12-20T02:52:45.728Z,81.48
2022-12-20T02:53:47.616Z,81.33
2022-12-20T02:54:49.566Z,80.80
2022-12-20T02:55:54.842Z,81.31
2022-12-20T02:57:09.997Z,80.85
2022-12-20T02:58:20.370Z,80.96
2022-12-20T02:59:25.140Z,81.85
2022-12-20T03:00:33.381Z,81.88
2022-12-20T03:01:38.557Z,81.41
2022-12-20T03:03:00.024Z,81.97
2022-12-20T03:04:03.334Z,81.93
2022-12-20T03:05:05.816Z,81.41
2022-12-20T03:06:07.773Z,81.52
2022-12-20T03:07:11.960Z,81.93
2022-12-20T03:08:14.263Z,82.16
2022-12-20T03:09:16.075Z,81.90
2022-12-20T03:10:18.414Z,81.92
2022-12-20T03:11:20.731Z,82.22
2022-12-20T03:12:22.528Z,82.29
2022-12-20T03:13:24.884Z,82.21
2022-12-20T03:14:26.744Z,82.49
2022-12-20T03:15:28.557Z,81.40
2022-12-20T03:16:30.424Z,81.91
2022-12-20T03:17:32.304Z,81.40
2022-12-20T03:18:35.365Z,81.48
2022-12-20T03:19:37.168Z,82.10
2022-12-20T03:20:39.248Z,81.92
2022-12-20T03:21:41.176Z,82.07
2022-12-20T03:22:43.095Z,82.09
2022-12-20T03:23:46.421Z,81.96
2022-12-20T03:24:48.182Z,81.89
2022-12-20T03:25:50.049Z,82.06
2022-12-20T03:26:51.905Z,81.44
2022-12-20T03:27:53.767Z,81.52
2022-12-20T03:28:56.441Z,81.89
2022-12-20T03:29:58.257Z,82.21
2022-12-20T03:31:00.163Z,82.27
2022-12-20T03:32:01.948Z,82.01
2022-12-20T03:33:03.771Z,81.97
2022-12-20T03:34:06.505Z,81.82
2022-12-20T03:35:08.580Z,81.44
2022-12-20T03:36:10.351Z,81.86
2022-12-20T03:37:12.184Z,81.43
2022-12-20T03:38:14.069Z,81.96
2022-12-20T03:39:16.263Z,81.43
2022-12-20T03:40:18.136Z,81.87
2022-12-20T03:41:21.578Z,81.33
2022-12-20T03:42:23.400Z,80.82
2022-12-20T03:43:25.274Z,81.70
2022-12-20T03:44:27.192Z,81.40
2022-12-20T03:45:29.072Z,81.49
2022-12-20T03:46:31.066Z,80.88
2022-12-20T03:47:33.213Z,81.23
2022-12-20T03:48:35.042Z,81.69
2022-12-20T03:49:36.821Z,80.84
2022-12-20T03:50:38.611Z,81.58
2022-12-20T03:51:40.411Z,81.95
2022-12-20T03:52:42.280Z,81.29
2022-12-20T03:53:44.019Z,81.72
2022-12-20T03:54:45.818Z,81.18
2022-12-20T03:55:47.631Z,81.55
2022-12-20T03:56:49.560Z,81.42
2022-12-20T03:57:51.497Z,81.37
2022-12-20T03:58:53.324Z,81.37
2022-12-20T03:59:55.127Z,80.81
2022-12-20T04:00:57.758Z,81.94
2022-12-20T04:02:00.610Z,81.23
2022-12-20T04:03:02.824Z,81.61
2022-12-20T04:04:05.284Z,80.76
2022-12-20T04:05:07.304Z,80.90
2022-12-20T04:06:09.195Z,80.69
2022-12-20T04:07:11.409Z,81.46
2022-12-20T04:08:13.240Z,81.36
2022-12-20T04:09:15.244Z,80.93
2022-12-20T04:10:17.136Z,81.67
2022-12-20T04:11:19.471Z,80.88
2022-12-20T04:12:21.265Z,81.54
2022-12-20T04:13:23.122Z,81.07
2022-12-20T04:14:24.927Z,81.78
2022-12-20T04:15:26.766Z,80.91
2022-12-20T04:16:29.513Z,81.49
2022-12-20T04:17:31.413Z,80.75
2022-12-20T04:18:33.225Z,81.40
2022-12-20T04:19:35.137Z,81.55
2022-12-20T04:20:37.081Z,80.53
2022-12-20T04:21:38.885Z,80.45
2022-12-20T04:22:40.700Z,80.93
2022-12-20T04:23:43.566Z,80.92
2022-12-20T04:24:45.526Z,80.64
2022-12-20T04:25:47.448Z,81.10
2022-12-20T04:26:49.782Z,80.58
2022-12-20T04:27:51.638Z,80.26
2022-12-20T04:28:53.473Z,80.51
2022-12-20T04:29:57.955Z,80.33
2022-12-20T04:31:01.442Z,80.81
2022-12-20T04:32:03.289Z,80.89
2022-12-20T04:33:05.088Z,80.49
2022-12-20T04:34:07.040Z,80.95
2022-12-20T04:35:09.085Z,81.05
2022-12-20T04:36:11.041Z,81.21
2022-12-20T04:37:13.490Z,80.91
2022-12-20T04:38:15.336Z,81.23
2022-12-20T04:39:17.141Z,80.82
2022-12-20T04:40:19.050Z,80.77
2022-12-20T04:41:23.764Z,81.03
2022-12-20T04:42:26.231Z,81.17
2022-12-20T04:43:28.127Z,80.74
2022-12-20T04:44:29.883Z,80.70
2022-12-20T04:45:31.712Z,80.59
2022-12-20T04:46:33.555Z,81.09
2022-12-20T04:47:35.409Z,80.77
2022-12-20T04:48:56.363Z,81.50
2022-12-20T04:49:59.451Z,81.15
2022-12-20T04:51:01.261Z,82.09
2022-12-20T04:52:22.954Z,82.10
2022-12-20T04:53:43.306Z,82.16
2022-12-20T04:54:45.210Z,82.37
2022-12-20T04:55:47.020Z,82.12
2022-12-20T04:56:48.804Z,81.96
2022-12-20T04:57:50.634Z,81.90
2022-12-20T04:58:53.380Z,81.63
2022-12-20T04:59:55.169Z,82.00
2022-12-20T05:00:57.013Z,81.67
2022-12-20T05:01:58.867Z,82.25
2022-12-20T05:03:01.452Z,81.76
2022-12-20T05:04:03.622Z,81.93
2022-12-20T05:05:05.687Z,82.48
2022-12-20T05:06:07.873Z,81.94
2022-12-20T05:07:09.798Z,81.96
2022-12-20T05:08:11.865Z,81.61
2022-12-20T05:09:13.728Z,82.51
2022-12-20T05:10:15.511Z,82.04
2022-12-20T05:11:17.370Z,82.13
2022-12-20T05:12:19.176Z,82.11
2022-12-20T05:13:21.008Z,82.18
2022-12-20T05:14:23.252Z,82.39
2022-12-20T05:15:25.155Z,81.60
2022-12-20T05:16:27.015Z,82.20
2022-12-20T05:17:28.837Z,82.18
2022-12-20T05:18:30.760Z,81.72
2022-12-20T05:19:33.544Z,81.92
2022-12-20T05:20:35.519Z,81.77
2022-12-20T05:21:55.869Z,81.40
2022-12-20T05:23:16.493Z,82.12
2022-12-20T05:24:36.585Z,82.31
2022-12-20T05:25:57.837Z,81.70
2022-12-20T05:27:00.164Z,81.94
2022-12-20T05:28:02.448Z,81.55
2022-12-20T05:29:04.658Z,81.96
2022-12-20T05:30:06.673Z,81.90
2022-12-20T05:31:08.659Z,81.72
2022-12-20T05:32:10.650Z,81.39
2022-12-20T05:33:13.013Z,81.64
2022-12-20T05:34:14.983Z,81.83
2022-12-20T05:35:17.349Z,81.22
2022-12-20T05:36:19.413Z,81.08
2022-12-20T05:37:21.371Z,81.29
2022-12-20T05:38:23.900Z,81.60
2022-12-20T05:39:26.237Z,81.69
2022-12-20T05:40:28.042Z,81.44
2022-12-20T05:41:29.769Z,80.95
2022-12-20T05:42:31.732Z,81.43
2022-12-20T05:43:34.002Z,81.88
2022-12-20T05:44:35.779Z,81.74
2022-12-20T05:45:37.644Z,81.77
2022-12-20T05:46:39.489Z,81.58
2022-12-20T05:47:41.424Z,82.03
2022-12-20T05:48:43.231Z,81.18
2022-12-20T05:49:45.259Z,81.44
2022-12-20T05:50:47.761Z,81.45
2022-12-20T05:51:49.648Z,81.45
2022-12-20T05:52:52.641Z,81.53
2022-12-20T05:53:54.436Z,81.45
2022-12-20T05:54:56.634Z,81.44
2022-12-20T05:55:59.275Z,82.28
2022-12-20T05:57:01.555Z,81.80
2022-12-20T05:58:03.539Z,81.99
2022-12-20T05:59:05.362Z,82.56
2022-12-20T06:00:07.713Z,82.51
2022-12-20T06:01:10.813Z,82.76
2022-12-20T06:02:12.768Z,82.76
2022-12-20T06:03:15.817Z,83.10
2022-12-20T06:04:17.935Z,83.17
2022-12-20T06:05:20.372Z,83.53
2022-12-20T06:06:22.205Z,83.70
2022-12-20T06:07:24.497Z,83.13
2022-12-20T06:08:26.381Z,83.44
2022-12-20T06:09:28.249Z,82.81
2022-12-20T06:10:30.015Z,83.15
2022-12-20T06:11:31.791Z,83.30
2022-12-20T06:12:33.580Z,83.02
2022-12-20T06:13:35.476Z,83.56
2022-12-20T06:14:37.309Z,83.25
2022-12-20T06:15:39.867Z,83.71
2022-12-20T06:16:41.815Z,82.66
2022-12-20T06:17:43.813Z,82.94
2022-12-20T06:18:45.641Z,83.41
2022-12-20T06:19:47.669Z,83.11
2022-12-20T06:20:53.031Z,83.12
2022-12-20T06:21:54.853Z,83.55
2022-12-20T06:22:56.695Z,83.57
2022-12-20T06:23:58.540Z,83.34
2022-12-20T06:25:00.323Z,82.73
2022-12-20T06:26:02.180Z,83.31
2022-12-20T06:27:03.910Z,83.41
2022-12-20T06:28:06.485Z,82.67
2022-12-20T06:29:10.485Z,82.79
2022-12-20T06:30:12.742Z,82.16
2022-12-20T06:31:14.647Z,82.10
2022-12-20T06:32:16.530Z,82.43
2022-12-20T06:33:18.307Z,82.42
2022-12-20T06:34:20.791Z,82.50
2022-12-20T06:35:22.675Z,81.98
2022-12-20T06:36:24.501Z,82.35
2022-12-20T06:37:26.282Z,82.35
2022-12-20T06:38:28.265Z,82.61
2022-12-20T06:39:30.099Z,82.28
2022-12-20T06:40:31.947Z,82.01
2022-12-20T06:41:33.757Z,82.34
2022-12-20T06:42:35.818Z,82.56
2022-12-20T06:43:37.660Z,82.42
2022-12-20T06:44:39.586Z,82.68
2022-12-20T06:45:42.924Z,82.25
2022-12-20T06:46:45.049Z,82.15
2022-12-20T06:47:46.836Z,82.32
2022-12-20T06:48:48.717Z,82.43
2022-12-20T06:49:50.549Z,82.56
2022-12-20T06:50:56.160Z,82.42
2022-12-20T06:51:58.348Z,82.60
2022-12-20T06:53:00.234Z,82.37
2022-12-20T06:54:02.039Z,82.33
2022-12-20T06:55:04.271Z,82.49
2022-12-20T06:56:06.244Z,82.77
2022-12-20T06:57:08.239Z,82.30
2022-12-20T06:58:10.120Z,82.15
2022-12-20T06:59:11.980Z,82.70
2022-12-20T07:00:14.114Z,82.50
2022-12-20T07:01:15.920Z,82.42
2022-12-20T07:02:17.923Z,82.06
2022-12-20T07:03:20.004Z,82.65
2022-12-20T07:04:22.281Z,82.43
2022-12-20T07:05:24.147Z,82.44
2022-12-20T07:06:27.268Z,81.95
2022-12-20T07:07:29.756Z,82.20
2022-12-20T07:08:31.757Z,82.08
2022-12-20T07:09:35.458Z,82.78
2022-12-20T07:10:37.868Z,82.89
2022-12-20T07:11:39.719Z,82.52
2022-12-20T07:12:47.435Z,82.19
2022-12-20T07:13:50.602Z,82.17
2022-12-20T07:14:52.456Z,82.85
2022-12-20T07:15:58.231Z,83.09
2022-12-20T07:17:00.299Z,83.19
2022-12-20T07:18:02.249Z,82.54
2022-12-20T07:19:04.225Z,82.90
2022-12-20T07:20:13.213Z,82.54
2022-12-20T07:21:17.453Z,83.09
2022-12-20T07:22:19.278Z,82.88
2022-12-20T07:23:21.248Z,82.62
2022-12-20T07:24:23.114Z,83.03
2022-12-20T07:25:25.795Z,82.69
2022-12-20T07:26:27.910Z,82.77
2022-12-20T07:27:29.768Z,83.49
2022-12-20T07:28:31.656Z,82.87
2022-12-20T07:29:33.441Z,82.92
2022-12-20T07:30:35.324Z,83.28
2022-12-20T07:31:37.260Z,83.56
2022-12-20T07:32:39.095Z,83.30
2022-12-20T07:33:41.013Z,83.55
2022-12-20T07:34:43.569Z,83.73
2022-12-20T07:35:53.966Z,83.15
2022-12-20T07:36:56.261Z,83.33
2022-12-20T07:37:58.067Z,83.05
2022-12-20T07:38:59.914Z,83.72
2022-12-20T07:40:02.054Z,83.25
2022-12-20T07:41:08.441Z,83.91
2022-12-20T07:42:10.244Z,83.92
2022-12-20T07:43:12.140Z,83.44
2022-12-20T07:44:14.020Z,83.62
2022-12-20T07:45:15.990Z,83.16
2022-12-20T07:46:18.320Z,83.39
2022-12-20T07:47:20.192Z,83.12
2022-12-20T07:48:22.335Z,83.19
2022-12-20T07:49:24.144Z,83.00
2022-12-20T07:50:28.184Z,83.25
2022-12-20T07:51:32.448Z,82.94
2022-12-20T07:52:35.028Z,82.63
2022-12-20T07:53:39.385Z,83.55
2022-12-20T07:54:44.080Z,82.96
2022-12-20T07:55:46.296Z,82.96
2022-12-20T07:56:51.771Z,82.87
2022-12-20T07:57:56.788Z,82.73
2022-12-20T07:59:00.980Z,83.07
2022-12-20T08:00:04.240Z,83.22
2022-12-20T08:01:06.198Z,83.33
2022-12-20T08:02:20.863Z,83.09
2022-12-20T08:03:26.874Z,83.43
2022-12-20T08:04:31.193Z,82.95
2022-12-20T08:05:34.153Z,83.46
2022-12-20T08:06:36.867Z,83.39
2022-12-20T08:07:41.789Z,83.52
2022-12-20T08:08:46.884Z,83.71
2022-12-20T08:09:48.906Z,83.08
2022-12-20T08:10:51.078Z,83.33
2022-12-20T08:11:53.639Z,83.16
2022-12-20T08:12:56.783Z,83.47
2022-12-20T08:13:58.732Z,82.78
2022-12-20T08:15:00.825Z,83.42
2022-12-20T08:16:02.629Z,83.52
2022-12-20T08:17:04.590Z,82.99
2022-12-20T08:18:06.723Z,83.76
2022-12-20T08:19:08.561Z,83.65
2022-12-20T08:20:10.555Z,83.68
2022-12-20T08:21:13.410Z,83.76
2022-12-20T08:22:15.326Z,83.84
2022-12-20T08:23:17.161Z,83.10
2022-12-20T08:24:19.128Z,83.72
2022-12-20T08:25:21.948Z,83.67
2022-12-20T08:26:23.756Z,83.12
2022-12-20T08:27:25.621Z,83.79
2022-12-20T08:28:27.431Z,82.82
2022-12-20T08:29:29.262Z,83.65
2022-12-20T08:30:31.075Z,83.40
2022-12-20T08:31:33.052Z,83.13
2022-12-20T08:32:36.451Z,82.84
2022-12-20T08:33:39.160Z,83.69
2022-12-20T08:34:41.060Z,83.44
2022-12-20T08:35:42.844Z,83.85
2022-12-20T08:36:44.719Z,83.47
2022-12-20T08:37:46.597Z,83.84
2022-12-20T08:38:48.446Z,83.43
2022-12-20T08:39:50.323Z,83.56
2022-12-20T08:40:52.124Z,82.79
2022-12-20T08:41:53.981Z,83.61
2022-12-20T08:42:55.911Z,83.64
2022-12-20T08:43:57.785Z,82.61
2022-12-20T08:45:00.890Z,82.57
2022-12-20T08:46:03.102Z,83.19
2022-12-20T08:47:04.880Z,82.49
2022-12-20T08:48:06.940Z,82.78
2022-12-20T08:49:08.877Z,82.60
2022-12-20T08:50:10.935Z,82.10
2022-12-20T08:51:12.886Z,82.28
2022-12-20T08:52:14.845Z,82.75
2022-12-20T08:53:16.649Z,82.17
2022-12-20T08:54:18.447Z,82.15
2022-12-20T08:55:27.545Z,82.46
2022-12-20T08:56:31.432Z,82.64
2022-12-20T08:57:33.297Z,82.90
2022-12-20T08:58:35.725Z,82.58
2022-12-20T08:59:37.615Z,82.87
2022-12-20T09:00:39.560Z,82.07
2022-12-20T09:01:41.546Z,81.70
2022-12-20T09:02:43.604Z,82.67
2022-12-20T09:03:47.921Z,81.84
2022-12-20T09:04:49.847Z,82.62
2022-12-20T09:05:52.876Z,82.71
2022-12-20T09:06:54.684Z,82.35
2022-12-20T09:07:56.526Z,82.10
2022-12-20T09:09:00.655Z,82.56
2022-12-20T09:10:03.487Z,82.41
2022-12-20T09:11:06.623Z,82.06
2022-12-20T09:12:08.427Z,82.21
2022-12-20T09:13:10.831Z,82.19
2022-12-20T09:14:12.626Z,82.06
2022-12-20T09:15:14.518Z,81.06
2022-12-20T09:16:17.823Z,81.16
2022-12-20T09:17:19.647Z,81.50
2022-12-20T09:18:21.440Z,81.87
2022-12-20T09:19:23.326Z,81.91
2022-12-20T09:20:25.913Z,81.56
2022-12-20T09:21:27.932Z,81.52
2022-12-20T09:22:30.319Z,81.02
2022-12-20T09:23:32.713Z,81.88
2022-12-20T09:24:34.526Z,81.96
2022-12-20T09:25:37.743Z,80.96
2022-12-20T09:26:41.067Z,80.25
2022-12-20T09:27:42.956Z,80.05
2022-12-20T09:28:44.902Z,80.09
2022-12-20T09:29:46.807Z,80.05
2022-12-20T09:30:48.727Z,80.56
2022-12-20T09:31:50.605Z,80.06
2022-12-20T09:32:52.617Z,80.53
2022-12-20T09:33:55.802Z,80.84
2022-12-20T09:34:57.560Z,80.38
2022-12-20T09:35:59.985Z,81.17
2022-12-20T09:37:01.812Z,80.57
2022-12-20T09:38:03.847Z,80.29
2022-12-20T09:39:05.728Z,80.30
2022-12-20T09:40:12.068Z,80.38
2022-12-20T09:41:23.150Z,80.75
2022-12-20T09:42:26.726Z,80.57
2022-12-20T09:43:28.676Z,80.35
2022-12-20T09:44:31.965Z,80.49
2022-12-20T09:45:37.103Z,80.33
2022-12-20T09:46:39.591Z,80.40
2022-12-20T09:47:42.286Z,80.26
2022-12-20T09:48:44.965Z,80.22
2022-12-20T09:49:49.703Z,80.89
2022-12-20T09:51:00.553Z,80.48
2022-12-20T09:52:21.254Z,79.92
2022-12-20T09:53:40.980Z,80.12
2022-12-20T09:55:01.462Z,80.54
2022-12-20T09:56:10.638Z,80.60
2022-12-20T09:57:27.520Z,80.57
2022-12-20T09:58:47.645Z,80.34
2022-12-20T09:59:50.145Z,80.79
2022-12-20T10:00:54.571Z,80.35
2022-12-20T10:01:58.384Z,79.46
2022-12-20T10:03:14.307Z,79.41
2022-12-20T10:04:21.633Z,78.88
2022-12-20T10:05:40.602Z,79.27
2022-12-20T10:06:54.158Z,79.12
2022-12-20T10:08:04.411Z,78.82
2022-12-20T10:09:12.055Z,79.02
2022-12-20T10:10:23.150Z,78.46
2022-12-20T10:11:54.927Z,78.62
2022-12-20T10:13:11.267Z,78.89
2022-12-20T10:14:34.873Z,79.23
2022-12-20T10:15:41.644Z,79.26
2022-12-20T10:16:46.511Z,79.28
2022-12-20T10:17:57.619Z,79.11
2022-12-20T10:19:18.192Z,79.19
2022-12-20T10:20:38.560Z,79.18
2022-12-20T10:21:46.469Z,79.93
2022-12-20T10:22:56.081Z,79.82
2022-12-20T10:24:02.152Z,79.32
2022-12-20T10:25:16.258Z,79.13
2022-12-20T10:26:18.114Z,78.97
2022-12-20T10:27:21.218Z,79.66
2022-12-20T10:28:28.171Z,79.32
2022-12-20T10:29:29.995Z,79.27
2022-12-20T10:30:33.306Z,79.02
2022-12-20T10:31:36.400Z,78.68
2022-12-20T10:32:38.372Z,78.80
2022-12-20T10:33:40.871Z,78.86
2022-12-20T10:35:02.984Z,79.08
2022-12-20T10:36:24.280Z,79.28
2022-12-20T10:37:28.022Z,78.69
2022-12-20T10:38:43.665Z,78.89
2022-12-20T10:39:48.319Z,78.32
2022-12-20T10:41:20.677Z,78.73
2022-12-20T10:42:25.902Z,78.88
2022-12-20T10:43:28.833Z,79.12
2022-12-20T10:44:30.936Z,78.79
2022-12-20T10:45:36.646Z,79.05
2022-12-20T10:46:40.452Z,78.58
2022-12-20T10:47:45.178Z,78.62
2022-12-20T10:48:49.016Z,78.62
2022-12-20T10:49:50.916Z,78.49
2022-12-20T10:51:17.021Z,78.73
2022-12-20T10:52:18.982Z,78.44
2022-12-20T10:53:23.166Z,78.56
2022-12-20T10:54:29.117Z,78.79
2022-12-20T10:55:35.880Z,78.96
2022-12-20T10:56:37.941Z,79.04
2022-12-20T10:57:42.401Z,78.28
2022-12-20T10:58:51.806Z,78.45
2022-12-20T10:59:58.079Z,78.90
2022-12-20T11:01:16.436Z,78.44
2022-12-20T11:02:30.286Z,78.48
2022-12-20T11:03:50.269Z,77.70
2022-12-20T11:05:18.733Z,78.04
2022-12-20T11:06:21.722Z,78.28
2022-12-20T11:07:26.214Z,78.03
2022-12-20T11:09:56.047Z,78.13
2022-12-20T11:11:13.398Z,78.03
2022-12-20T11:12:16.703Z,78.11
2022-12-20T11:13:23.483Z,77.99
2022-12-20T11:14:25.532Z,77.70
2022-12-20T11:15:34.065Z,78.30
2022-12-20T11:16:38.374Z,78.29
2022-12-20T11:17:47.702Z,78.30
2022-12-20T11:18:57.337Z,78.07
2022-12-20T11:20:18.006Z,78.17
2022-12-20T11:21:34.650Z,77.96
2022-12-20T11:22:37.767Z,78.03
2022-12-20T11:23:42.914Z,78.08
2022-12-20T11:24:59.723Z,77.35
2022-12-20T11:26:20.467Z,77.37
2022-12-20T11:27:33.835Z,77.66
2022-12-20T11:28:45.281Z,77.74
2022-12-20T11:30:02.937Z,78.04
2022-12-20T11:31:20.016Z,78.07
2022-12-20T11:32:24.931Z,77.89
2022-12-20T11:33:45.520Z,78.12
2022-12-20T11:35:10.552Z,78.07
2022-12-20T11:36:19.234Z,78.09
2022-12-20T11:37:25.665Z,78.01
2022-12-20T11:38:46.228Z,78.07
2022-12-20T11:40:06.844Z,77.58
2022-12-20T11:41:18.730Z,77.27
2022-12-20T11:42:48.536Z,77.47
2022-12-20T11:44:25.433Z,77.68
2022-12-20T11:45:36.001Z,77.31
2022-12-20T11:46:49.231Z,76.92
2022-12-20T11:48:03.347Z,77.64
2022-12-20T11:49:14.435Z,77.60
2022-12-20T11:50:35.628Z,77.45
2022-12-20T11:51:47.702Z,77.00
2022-12-20T11:52:55.649Z,76.83
2022-12-20T11:54:11.144Z,76.63
2022-12-20T11:55:12.870Z,77.11
2022-12-20T11:56:17.837Z,76.98
2022-12-20T11:57:48.364Z,77.25
2022-12-20T11:59:03.594Z,77.04
2022-12-20T12:00:06.884Z,76.76
2022-12-20T12:01:14.145Z,77.03
2022-12-20T12:02:35.974Z,76.99
2022-12-20T12:03:40.124Z,76.87
2022-12-20T12:04:45.458Z,76.78
2022-12-20T12:05:49.365Z,76.31
2022-12-20T12:06:58.803Z,76.59
2022-12-20T12:08:04.211Z,76.90
2022-12-20T12:09:14.693Z,76.89
2022-12-20T12:10:19.368Z,77.04
2022-12-20T12:12:48.484Z,77.01
2022-12-20T12:13:50.878Z,76.89
2022-12-20T12:15:00.283Z,76.69
2022-12-20T12:16:06.687Z,76.63
2022-12-20T12:17:18.610Z,77.09
2022-12-20T12:18:22.064Z,76.58
2022-12-20T12:19:25.293Z,76.10
2022-12-20T12:20:36.999Z,76.32
2022-12-20T12:21:41.128Z,76.25
2022-12-20T12:22:44.639Z,75.80
2022-12-20T12:24:06.013Z,75.95
2022-12-20T12:25:12.290Z,76.19
2022-12-20T12:26:25.440Z,76.56
2022-12-20T12:27:28.301Z,76.09
2022-12-20T12:28:30.231Z,76.05
2022-12-20T12:29:33.646Z,76.41
2022-12-20T12:30:41.261Z,76.40
2022-12-20T12:31:46.050Z,76.23
2022-12-20T12:32:50.736Z,76.14
2022-12-20T12:34:08.999Z,76.18
2022-12-20T12:35:16.644Z,76.56
2022-12-20T12:36:39.224Z,76.27
2022-12-20T12:37:41.003Z,75.91
2022-12-20T12:38:55.645Z,76.22
2022-12-20T12:40:01.909Z,76.15
2022-12-20T12:41:03.711Z,76.17
2022-12-20T12:42:06.190Z,76.26
2022-12-20T12:43:15.173Z,75.90
2022-12-20T12:44:32.438Z,75.99
2022-12-20T12:45:48.871Z,76.07
2022-12-20T12:46:55.872Z,76.13
2022-12-20T12:48:12.683Z,75.92
2022-12-20T12:49:14.465Z,76.41
2022-12-20T12:50:23.187Z,76.34
2022-12-20T12:51:33.393Z,76.27
2022-12-20T12:52:36.103Z,76.08
2022-12-20T12:53:38.208Z,76.38
2022-12-20T12:54:41.179Z,76.42
2022-12-20T12:55:44.976Z,76.32
2022-12-20T12:56:48.659Z,76.23
2022-12-20T12:57:57.793Z,76.46
2022-12-20T12:59:10.824Z,76.63
2022-12-20T13:00:44.984Z,76.43
2022-12-20T13:01:52.117Z,76.53
2022-12-20T13:02:54.476Z,76.76
2022-12-20T13:03:56.417Z,76.61
2022-12-20T13:05:04.244Z,76.82
2022-12-20T13:06:38.628Z,76.90
2022-12-20T13:07:40.907Z,76.72
2022-12-20T13:09:08.861Z,76.81
2022-12-20T13:10:10.688Z,76.62
2022-12-20T13:11:13.352Z,76.61
2022-12-20T13:12:33.366Z,76.69
2022-12-20T13:13:35.380Z,77.13
2022-12-20T13:14:37.141Z,77.04
2022-12-20T13:15:41.722Z,76.90
2022-12-20T13:17:11.501Z,76.54
2022-12-20T13:18:11.184Z,76.45
2022-12-20T13:19:39.266Z,76.43
2022-12-20T13:20:41.313Z,76.33
2022-12-20T13:21:48.632Z,76.96
2022-12-20T13:23:05.774Z,77.05
2022-12-20T13:24:41.412Z,77.27
2022-12-20T13:25:51.550Z,77.04
2022-12-20T13:26:53.933Z,77.17
2022-12-20T13:28:16.101Z,77.31
2022-12-20T13:29:27.882Z,77.12
2022-12-20T13:30:29.895Z,77.30
2022-12-20T13:31:32.956Z,77.04
2022-12-20T13:32:47.125Z,77.22
2022-12-20T13:33:49.832Z,77.56
2022-12-20T13:34:57.047Z,77.36
2022-12-20T13:35:58.784Z,77.21
2022-12-20T13:37:00.707Z,77.01
2022-12-20T13:38:25.507Z,76.97
2022-12-20T13:39:33.759Z,77.19
2022-12-20T13:40:38.929Z,76.72
2022-12-20T13:41:44.803Z,76.94
2022-12-20T13:42:48.257Z,77.36
2022-12-20T13:43:51.450Z,77.20
2022-12-20T13:44:55.028Z,77.35
2022-12-20T13:46:11.834Z,77.41
2022-12-20T13:47:34.558Z,77.50
2022-12-20T13:48:38.891Z,77.64
2022-12-20T13:49:42.750Z,77.49
2022-12-20T13:50:53.135Z,77.10
2022-12-20T13:52:12.703Z,76.96
2022-12-20T13:53:19.214Z,76.79
2022-12-20T13:54:27.158Z,77.11
2022-12-20T13:55:34.139Z,77.38
2022-12-20T13:56:41.983Z,77.45
2022-12-20T13:57:45.116Z,77.41
2022-12-20T13:58:47.321Z,77.53
2022-12-20T13:59:50.144Z,77.46
2022-12-20T14:00:53.205Z,77.21
2022-12-20T14:01:56.985Z,77.48
2022-12-20T14:03:01.052Z,77.32